ELY5112 LIRN-LLBG
Flight info
| Callsign | ELY5112 |
|---|---|
| Flight time | N/A |
| Altitude | 35000 |
| Route | POLIT DCT EVINO DCT CRN DCT RUTOM UM601 MIL UN134 VANZA DCT PIKOG L609 ZUKKO |
| Aircraft | B738/M-SDE2E3FGHIRWXY/LB1 |
Departure
| Time | 2026-05-05 13:54 |
|---|---|
| Airport | Naples International Airport (LIRN) |
Arrival
| Time | N/A |
|---|---|
| Airport | Ben Gurion International Airport (LLBG) |
| Time | Latitude | Longitude | Altitude | Speed | Heading |
|---|---|---|---|---|---|
| 2026-05-05 13:26 | 40.87891 | 14.28166 | 292 ft | 0 kts | 163° |
| 2026-05-05 13:27 | 40.87894 | 14.28165 | 292 ft | 0 kts | 164° |
| 2026-05-05 13:27 | 40.87891 | 14.28166 | 292 ft | 0 kts | 163° |
| 2026-05-05 13:44 | 40.87902 | 14.28162 | 295 ft | 3 kts | 163° |
| 2026-05-05 13:44 | 40.87922 | 14.28154 | 294 ft | 3 kts | 163° |
| 2026-05-05 13:44 | 40.87940 | 14.28148 | 297 ft | 3 kts | 179° |
| 2026-05-05 13:44 | 40.87955 | 14.28152 | 297 ft | 3 kts | 232° |
| 2026-05-05 13:45 | 40.87961 | 14.28174 | 294 ft | 3 kts | 274° |
| 2026-05-05 13:45 | 40.87958 | 14.28201 | 293 ft | 3 kts | 278° |
| 2026-05-05 13:45 | 40.87955 | 14.28228 | 294 ft | 2 kts | 278° |
| 2026-05-05 13:45 | 40.87955 | 14.28231 | 294 ft | 2 kts | 278° |
| 2026-05-05 13:48 | 40.87956 | 14.28220 | 295 ft | 3 kts | 277° |
| 2026-05-05 13:48 | 40.87963 | 14.28169 | 295 ft | 8 kts | 284° |
| 2026-05-05 13:48 | 40.88015 | 14.28142 | 290 ft | 11 kts | 24° |
| 2026-05-05 13:48 | 40.88066 | 14.28247 | 288 ft | 16 kts | 79° |
| 2026-05-05 13:49 | 40.88054 | 14.28412 | 285 ft | 21 kts | 97° |
| 2026-05-05 13:49 | 40.88039 | 14.28580 | 283 ft | 11 kts | 87° |
| 2026-05-05 13:49 | 40.88081 | 14.28667 | 281 ft | 12 kts | 52° |
| 2026-05-05 13:49 | 40.88121 | 14.28735 | 279 ft | 15 kts | 52° |
| 2026-05-05 13:50 | 40.88160 | 14.28803 | 278 ft | 18 kts | 52° |
| 2026-05-05 13:50 | 40.88244 | 14.28951 | 274 ft | 23 kts | 53° |
| 2026-05-05 13:50 | 40.88348 | 14.29130 | 269 ft | 26 kts | 52° |
| 2026-05-05 13:50 | 40.88460 | 14.29319 | 264 ft | 26 kts | 53° |
| 2026-05-05 13:51 | 40.88561 | 14.29498 | 260 ft | 22 kts | 53° |
| 2026-05-05 13:51 | 40.88653 | 14.29656 | 255 ft | 21 kts | 51° |
| 2026-05-05 13:51 | 40.88743 | 14.29809 | 250 ft | 21 kts | 54° |
| 2026-05-05 13:51 | 40.88837 | 14.29975 | 245 ft | 26 kts | 52° |
| 2026-05-05 13:52 | 40.88948 | 14.30169 | 238 ft | 24 kts | 53° |
| 2026-05-05 13:52 | 40.89037 | 14.30255 | 234 ft | 14 kts | 346° |
| 2026-05-05 13:52 | 40.89116 | 14.30186 | 234 ft | 13 kts | 301° |
| 2026-05-05 13:52 | 40.89108 | 14.30138 | 236 ft | 4 kts | 229° |
| 2026-05-05 13:53 | 40.89077 | 14.30080 | 237 ft | 14 kts | 238° |
| 2026-05-05 13:53 | 40.88897 | 14.29700 | 249 ft | 84 kts | 238° |
| 2026-05-05 13:53 | 40.88472 | 14.28796 | 273 ft | 145 kts | 238° |
| 2026-05-05 13:53 | 40.87854 | 14.27538 | 643 ft | 169 kts | 234° |
| 2026-05-05 13:54 | 40.87009 | 14.26454 | 1375 ft | 182 kts | 203° |
| 2026-05-05 13:54 | 40.85758 | 14.26111 | 2169 ft | 183 kts | 177° |
| 2026-05-05 13:54 | 40.84483 | 14.26332 | 2894 ft | 187 kts | 173° |
| 2026-05-05 13:54 | 40.83182 | 14.26570 | 3564 ft | 191 kts | 174° |
| 2026-05-05 13:55 | 40.81858 | 14.26807 | 4222 ft | 193 kts | 174° |
| 2026-05-05 13:55 | 40.80523 | 14.27040 | 4883 ft | 195 kts | 174° |
| 2026-05-05 13:55 | 40.79171 | 14.27271 | 5494 ft | 195 kts | 175° |
| 2026-05-05 13:55 | 40.77821 | 14.27498 | 6083 ft | 196 kts | 175° |
| 2026-05-05 13:56 | 40.76464 | 14.27723 | 6640 ft | 197 kts | 176° |
| 2026-05-05 13:56 | 40.75101 | 14.27947 | 7110 ft | 198 kts | 176° |
| 2026-05-05 13:56 | 40.73728 | 14.28172 | 7570 ft | 199 kts | 176° |
| 2026-05-05 13:56 | 40.72341 | 14.28399 | 7994 ft | 202 kts | 177° |
| 2026-05-05 13:57 | 40.70942 | 14.28638 | 8412 ft | 205 kts | 173° |
| 2026-05-05 13:57 | 40.69496 | 14.29119 | 8575 ft | 224 kts | 167° |
| 2026-05-05 13:57 | 40.67943 | 14.29735 | 8740 ft | 243 kts | 167° |
| 2026-05-05 13:57 | 40.66260 | 14.30406 | 8889 ft | 263 kts | 167° |
| 2026-05-05 13:58 | 40.64434 | 14.31121 | 9133 ft | 282 kts | 167° |
| 2026-05-05 13:58 | 40.62532 | 14.31857 | 9754 ft | 287 kts | 167° |
| 2026-05-05 13:58 | 40.60609 | 14.32595 | 10362 ft | 291 kts | 167° |
| 2026-05-05 13:58 | 40.58602 | 14.33414 | 10542 ft | 315 kts | 160° |
| 2026-05-05 13:59 | 40.54945 | 14.37134 | 11298 ft | 343 kts | 141° |
| 2026-05-05 13:59 | 40.53159 | 14.39233 | 11941 ft | 346 kts | 141° |
| 2026-05-05 14:00 | 40.49558 | 14.43449 | 13245 ft | 353 kts | 141° |
| 2026-05-05 14:00 | 40.48309 | 14.44901 | 13696 ft | 356 kts | 141° |
| 2026-05-05 14:00 | 40.45833 | 14.47763 | 14573 ft | 360 kts | 141° |
| 2026-05-05 14:00 | 40.43914 | 14.49972 | 15234 ft | 363 kts | 141° |
| 2026-05-05 14:01 | 40.42032 | 14.52133 | 15879 ft | 366 kts | 141° |
| 2026-05-05 14:01 | 40.40111 | 14.54336 | 16532 ft | 368 kts | 142° |
| 2026-05-05 14:01 | 40.38171 | 14.56557 | 17169 ft | 372 kts | 142° |
| 2026-05-05 14:01 | 40.36213 | 14.58796 | 17795 ft | 375 kts | 142° |
| 2026-05-05 14:02 | 40.34235 | 14.61057 | 18399 ft | 379 kts | 142° |
| 2026-05-05 14:02 | 40.32241 | 14.63334 | 18924 ft | 382 kts | 142° |
| 2026-05-05 14:02 | 40.30227 | 14.65633 | 19460 ft | 385 kts | 142° |
| 2026-05-05 14:02 | 40.28195 | 14.67951 | 19991 ft | 389 kts | 142° |
| 2026-05-05 14:03 | 40.26150 | 14.70281 | 20521 ft | 392 kts | 142° |
| 2026-05-05 14:03 | 40.24084 | 14.72633 | 21040 ft | 395 kts | 142° |
| 2026-05-05 14:03 | 40.22005 | 14.74999 | 21548 ft | 398 kts | 142° |
| 2026-05-05 14:03 | 40.19881 | 14.77415 | 22062 ft | 401 kts | 142° |
| 2026-05-05 14:04 | 40.17794 | 14.79786 | 22548 ft | 404 kts | 142° |
| 2026-05-05 14:04 | 40.15661 | 14.82205 | 23025 ft | 408 kts | 143° |
| 2026-05-05 14:04 | 40.13512 | 14.84641 | 23518 ft | 411 kts | 143° |
| 2026-05-05 14:04 | 40.11344 | 14.87095 | 23940 ft | 414 kts | 143° |
| 2026-05-05 14:05 | 40.09157 | 14.89568 | 24341 ft | 417 kts | 143° |
| 2026-05-05 14:05 | 40.06926 | 14.92091 | 24748 ft | 420 kts | 143° |
| 2026-05-05 14:05 | 40.04738 | 14.94562 | 25138 ft | 423 kts | 143° |
| 2026-05-05 14:05 | 40.02507 | 14.97082 | 25504 ft | 426 kts | 143° |
| 2026-05-05 14:06 | 40.00257 | 14.99620 | 25854 ft | 429 kts | 143° |
| 2026-05-05 14:06 | 39.97991 | 15.02175 | 26216 ft | 432 kts | 143° |
| 2026-05-05 14:06 | 39.95712 | 15.04742 | 26576 ft | 435 kts | 143° |
| 2026-05-05 14:06 | 39.93412 | 15.07330 | 26920 ft | 438 kts | 143° |
| 2026-05-05 14:07 | 39.91099 | 15.09930 | 27258 ft | 441 kts | 143° |
| 2026-05-05 14:07 | 39.88769 | 15.12548 | 27584 ft | 444 kts | 143° |
| 2026-05-05 14:07 | 39.86423 | 15.15181 | 27890 ft | 447 kts | 143° |
| 2026-05-05 14:07 | 39.84054 | 15.17837 | 28195 ft | 451 kts | 143° |
| 2026-05-05 14:08 | 39.81674 | 15.20503 | 28494 ft | 454 kts | 143° |
| 2026-05-05 14:08 | 39.79274 | 15.23191 | 28782 ft | 457 kts | 143° |
| 2026-05-05 14:08 | 39.76855 | 15.25897 | 29078 ft | 460 kts | 143° |
| 2026-05-05 14:08 | 39.74422 | 15.28614 | 29382 ft | 463 kts | 143° |
| 2026-05-05 14:09 | 39.72823 | 15.30545 | 29569 ft | 467 kts | 137° |
| 2026-05-05 14:09 | 39.70716 | 15.33794 | 29837 ft | 473 kts | 128° |
| 2026-05-05 14:09 | 39.68996 | 15.37467 | 30119 ft | 479 kts | 120° |
| 2026-05-05 14:09 | 39.67469 | 15.41316 | 30374 ft | 481 kts | 118° |
| 2026-05-05 14:10 | 39.65970 | 15.45207 | 30575 ft | 484 kts | 118° |
| 2026-05-05 14:10 | 39.64462 | 15.49133 | 30796 ft | 487 kts | 118° |
| 2026-05-05 14:10 | 39.62941 | 15.53060 | 31078 ft | 487 kts | 118° |
| 2026-05-05 14:10 | 39.61408 | 15.56976 | 31400 ft | 487 kts | 118° |
| 2026-05-05 14:11 | 39.59861 | 15.60889 | 31693 ft | 487 kts | 118° |
| 2026-05-05 14:11 | 39.58306 | 15.64794 | 31957 ft | 488 kts | 118° |
| 2026-05-05 14:11 | 39.56741 | 15.68706 | 32234 ft | 489 kts | 118° |
| 2026-05-05 14:11 | 39.55175 | 15.72614 | 32521 ft | 489 kts | 118° |
| 2026-05-05 14:12 | 39.53603 | 15.76529 | 32807 ft | 489 kts | 118° |
| 2026-05-05 14:12 | 39.52033 | 15.80438 | 33103 ft | 489 kts | 118° |
| 2026-05-05 14:12 | 39.50461 | 15.84346 | 33416 ft | 489 kts | 118° |
| 2026-05-05 14:12 | 39.48891 | 15.88247 | 33740 ft | 489 kts | 118° |
| 2026-05-05 14:13 | 39.47317 | 15.92154 | 34025 ft | 489 kts | 117° |
| 2026-05-05 14:13 | 39.45743 | 15.96055 | 34277 ft | 489 kts | 117° |
| 2026-05-05 14:13 | 39.44173 | 15.99942 | 34602 ft | 486 kts | 118° |
| 2026-05-05 14:13 | 39.42614 | 16.03798 | 34989 ft | 482 kts | 118° |
| 2026-05-05 14:14 | 39.39489 | 16.11509 | 35075 ft | 484 kts | 118° |
| 2026-05-05 14:14 | 39.36371 | 16.19185 | 35080 ft | 480 kts | 118° |
| 2026-05-05 14:15 | 39.33271 | 16.26798 | 35087 ft | 478 kts | 118° |
| 2026-05-05 14:15 | 39.30179 | 16.34371 | 35080 ft | 476 kts | 118° |
| 2026-05-05 14:16 | 39.27090 | 16.41918 | 35095 ft | 475 kts | 118° |
| 2026-05-05 14:16 | 39.24004 | 16.49440 | 35081 ft | 474 kts | 118° |
| 2026-05-05 14:17 | 39.20918 | 16.56945 | 35082 ft | 474 kts | 118° |
| 2026-05-05 14:17 | 39.17825 | 16.64448 | 35083 ft | 474 kts | 118° |
| 2026-05-05 14:18 | 39.14724 | 16.71952 | 35080 ft | 475 kts | 118° |
| 2026-05-05 14:18 | 39.11613 | 16.79460 | 35071 ft | 476 kts | 118° |
| 2026-05-05 14:19 | 39.08490 | 16.86981 | 35081 ft | 477 kts | 118° |
| 2026-05-05 14:19 | 39.05354 | 16.94517 | 35072 ft | 478 kts | 118° |
| 2026-05-05 14:20 | 39.02205 | 17.02067 | 35079 ft | 480 kts | 118° |
| 2026-05-05 14:20 | 38.99188 | 17.09717 | 35064 ft | 480 kts | 110° |
| 2026-05-05 14:21 | 38.97161 | 17.17892 | 35074 ft | 480 kts | 106° |
| 2026-05-05 14:21 | 38.95263 | 17.26106 | 35080 ft | 480 kts | 106° |
| 2026-05-05 14:22 | 38.93324 | 17.34314 | 35078 ft | 480 kts | 106° |
| 2026-05-05 14:22 | 38.91348 | 17.42501 | 35080 ft | 480 kts | 106° |
| 2026-05-05 14:23 | 38.89352 | 17.50686 | 35081 ft | 480 kts | 106° |
| 2026-05-05 14:23 | 38.87353 | 17.58859 | 35081 ft | 480 kts | 106° |
| 2026-05-05 14:24 | 38.85352 | 17.67022 | 35089 ft | 480 kts | 106° |
| 2026-05-05 14:24 | 38.83345 | 17.75183 | 35095 ft | 480 kts | 106° |
| 2026-05-05 14:25 | 38.81332 | 17.83339 | 35097 ft | 480 kts | 106° |
| 2026-05-05 14:25 | 38.79314 | 17.91491 | 35100 ft | 480 kts | 106° |
| 2026-05-05 14:26 | 38.77288 | 17.99643 | 35102 ft | 480 kts | 106° |
| 2026-05-05 14:26 | 38.75258 | 18.07790 | 35106 ft | 480 kts | 105° |
| 2026-05-05 14:27 | 38.73218 | 18.15942 | 35106 ft | 481 kts | 105° |
| 2026-05-05 14:27 | 38.71172 | 18.24096 | 35100 ft | 481 kts | 105° |
| 2026-05-05 14:28 | 38.69120 | 18.32246 | 35111 ft | 481 kts | 105° |
| 2026-05-05 14:28 | 38.67060 | 18.40400 | 35109 ft | 482 kts | 105° |
| 2026-05-05 14:29 | 38.64994 | 18.48552 | 35112 ft | 482 kts | 105° |
| 2026-05-05 14:29 | 38.62921 | 18.56706 | 35110 ft | 482 kts | 105° |
| 2026-05-05 14:30 | 38.60841 | 18.64859 | 35115 ft | 482 kts | 105° |
| 2026-05-05 14:30 | 38.58755 | 18.73009 | 35118 ft | 482 kts | 105° |
| 2026-05-05 14:31 | 38.56663 | 18.81153 | 35120 ft | 482 kts | 105° |
| 2026-05-05 14:31 | 38.54566 | 18.89298 | 35120 ft | 482 kts | 105° |
| 2026-05-05 14:32 | 38.52462 | 18.97440 | 35119 ft | 482 kts | 105° |
| 2026-05-05 14:32 | 38.50348 | 19.05566 | 35120 ft | 482 kts | 105° |
| 2026-05-05 14:33 | 38.48218 | 19.13682 | 35124 ft | 482 kts | 105° |
| 2026-05-05 14:33 | 38.46086 | 19.21789 | 35123 ft | 482 kts | 105° |
| 2026-05-05 14:34 | 38.43948 | 19.29897 | 35128 ft | 482 kts | 105° |
| 2026-05-05 14:34 | 38.41808 | 19.37989 | 35128 ft | 482 kts | 105° |
| 2026-05-05 14:35 | 38.39665 | 19.46072 | 35124 ft | 481 kts | 105° |
| 2026-05-05 14:35 | 38.37515 | 19.54150 | 35132 ft | 481 kts | 105° |
| 2026-05-05 14:36 | 38.35362 | 19.62217 | 35129 ft | 481 kts | 105° |
| 2026-05-05 14:36 | 38.33207 | 19.70274 | 35130 ft | 480 kts | 105° |
| 2026-05-05 14:37 | 38.31042 | 19.78324 | 35130 ft | 480 kts | 105° |
| 2026-05-05 14:37 | 38.28869 | 19.86359 | 35129 ft | 480 kts | 106° |
| 2026-05-05 14:38 | 38.26692 | 19.94385 | 35131 ft | 480 kts | 106° |
| 2026-05-05 14:38 | 38.24511 | 20.02405 | 35130 ft | 479 kts | 106° |
| 2026-05-05 14:39 | 38.22327 | 20.10415 | 35130 ft | 479 kts | 106° |
| 2026-05-05 14:39 | 38.20140 | 20.18416 | 35131 ft | 479 kts | 106° |
| 2026-05-05 14:40 | 38.17946 | 20.26411 | 35131 ft | 479 kts | 106° |
| 2026-05-05 14:40 | 38.15750 | 20.34394 | 35131 ft | 479 kts | 106° |
| 2026-05-05 14:41 | 38.13549 | 20.42374 | 35130 ft | 479 kts | 106° |
| 2026-05-05 14:41 | 38.11335 | 20.50347 | 35132 ft | 479 kts | 108° |
| 2026-05-05 14:42 | 38.08614 | 20.58108 | 35133 ft | 481 kts | 113° |
| 2026-05-05 14:42 | 38.05653 | 20.65731 | 35132 ft | 482 kts | 114° |
| 2026-05-05 14:43 | 38.02700 | 20.73365 | 35126 ft | 482 kts | 114° |
| 2026-05-05 14:43 | 37.99782 | 20.81027 | 35115 ft | 482 kts | 113° |
| 2026-05-05 14:44 | 37.96876 | 20.88693 | 35113 ft | 483 kts | 113° |
| 2026-05-05 14:44 | 37.93963 | 20.96366 | 35114 ft | 483 kts | 113° |
| 2026-05-05 14:45 | 37.91041 | 21.04037 | 35127 ft | 484 kts | 113° |
| 2026-05-05 14:45 | 37.88133 | 21.11650 | 35129 ft | 484 kts | 113° |
| 2026-05-05 14:46 | 37.85178 | 21.19363 | 35126 ft | 484 kts | 113° |
| 2026-05-05 14:46 | 37.82255 | 21.26976 | 35131 ft | 484 kts | 113° |
| 2026-05-05 14:47 | 37.79309 | 21.34629 | 35131 ft | 484 kts | 113° |
| 2026-05-05 14:47 | 37.76357 | 21.42280 | 35121 ft | 484 kts | 113° |
| 2026-05-05 14:48 | 37.73879 | 21.48687 | 35119 ft | 484 kts | 113° |
| 2026-05-05 14:48 | 37.70916 | 21.56331 | 35116 ft | 484 kts | 113° |
| 2026-05-05 14:49 | 37.67947 | 21.63973 | 35121 ft | 485 kts | 113° |
| 2026-05-05 14:49 | 37.64971 | 21.71612 | 35109 ft | 485 kts | 114° |
| 2026-05-05 14:50 | 37.61990 | 21.79247 | 35109 ft | 485 kts | 114° |
| 2026-05-05 14:50 | 37.59003 | 21.86879 | 35115 ft | 485 kts | 114° |
| 2026-05-05 14:51 | 37.56010 | 21.94507 | 35113 ft | 486 kts | 114° |
| 2026-05-05 14:51 | 37.53009 | 22.02135 | 35119 ft | 486 kts | 114° |
| 2026-05-05 14:52 | 37.50002 | 22.09762 | 35110 ft | 486 kts | 114° |
| 2026-05-05 14:52 | 37.46991 | 22.17380 | 35093 ft | 486 kts | 114° |
| 2026-05-05 14:53 | 37.43976 | 22.24994 | 35098 ft | 486 kts | 114° |
| 2026-05-05 14:53 | 37.40956 | 22.32601 | 35084 ft | 486 kts | 114° |
| 2026-05-05 14:54 | 37.38372 | 22.40418 | 35084 ft | 484 kts | 107° |
| 2026-05-05 14:54 | 37.36137 | 22.48394 | 35084 ft | 484 kts | 106° |
| 2026-05-05 14:55 | 37.33891 | 22.56367 | 35077 ft | 484 kts | 107° |
| 2026-05-05 14:55 | 37.31589 | 22.64324 | 35068 ft | 485 kts | 107° |
| 2026-05-05 14:56 | 37.29262 | 22.72268 | 35061 ft | 485 kts | 107° |
| 2026-05-05 14:56 | 37.26926 | 22.80210 | 35065 ft | 485 kts | 107° |
| 2026-05-05 14:57 | 37.24588 | 22.88148 | 35056 ft | 485 kts | 107° |
| 2026-05-05 14:57 | 37.22246 | 22.96083 | 35058 ft | 485 kts | 107° |
| 2026-05-05 14:58 | 37.19900 | 23.04007 | 35058 ft | 485 kts | 107° |
| 2026-05-05 14:58 | 37.17550 | 23.11924 | 35062 ft | 484 kts | 107° |
| 2026-05-05 14:59 | 37.15195 | 23.19835 | 35054 ft | 484 kts | 107° |